Time;durP1;ratioP1;P1;durP2;ratioP2;P2;SDS_P1;SDS_P2;PMS_P1;PMS_P2;Temp;Humidity;BMP_temperature;BMP_pressure;BME280_temperature;BME280_humidity;BME280_pressure;Samples;Min_cycle;Max_cycle;Signal;HPM_P1;HPM_P2
2020/12/10 00:01:33;;;;;;;3.90;2.20;;;;;;;3.00;93.77;100628.44;5033456;28;20444;-69
2020/12/10 00:03:59;;;;;;;7.00;3.20;;;;;;;2.95;93.70;100623.84;5033431;28;20490;-69
2020/12/10 00:06:25;;;;;;;1.03;0.50;;;;;;;2.96;93.77;100627.31;5033442;28;20513;-69
2020/12/10 00:08:52;;;;;;;1.37;1.27;;;;;;;2.81;93.37;100621.78;5033413;28;20485;-69
2020/12/10 00:11:18;;;;;;;10.20;1.93;;;;;;;2.81;93.72;100616.44;5033033;28;20470;-70
2020/12/10 00:13:44;;;;;;;0.97;0.57;;;;;;;2.83;93.83;100599.06;5032954;28;20459;-70
2020/12/10 00:16:11;;;;;;;9.93;1.57;;;;;;;2.79;94.17;100603.34;5033307;28;20441;-70
2020/12/10 00:18:38;;;;;;;4.40;3.27;;;;;;;2.84;94.10;100607.94;5032837;28;20923;-70
2020/12/10 00:21:04;;;;;;;0.97;0.90;;;;;;;2.80;94.29;100609.50;5033221;28;20536;-69
2020/12/10 00:23:30;;;;;;;2.60;2.37;;;;;;;2.81;95.03;100613.78;5033193;28;20948;-70
2020/12/10 00:25:57;;;;;;;3.73;0.93;;;;;;;2.90;95.04;100622.97;5033271;28;20843;-70
2020/12/10 00:28:23;;;;;;;0.90;0.70;;;;;;;2.93;94.81;100617.13;5037338;28;20443;-70
2020/12/10 00:30:49;;;;;;;2.87;2.43;;;;;;;2.97;94.58;100608.38;5039796;28;20430;-70
2020/12/10 00:33:16;;;;;;;4.20;3.17;;;;;;;2.97;94.45;100623.59;5039449;28;20439;-70
2020/12/10 00:35:42;;;;;;;1.73;1.60;;;;;;;2.94;94.65;100621.44;5039653;28;20493;-70
2020/12/10 00:38:08;;;;;;;5.90;1.40;;;;;;;2.92;95.05;100615.50;5039740;28;20860;-70
2020/12/10 00:40:34;;;;;;;2.17;1.77;;;;;;;2.98;94.60;100614.53;5039567;28;20490;-70
2020/12/10 00:43:01;;;;;;;2.40;2.00;;;;;;;3.00;94.31;100613.19;5039700;28;20489;-69
2020/12/10 00:45:28;;;;;;;4.10;2.10;;;;;;;2.96;94.40;100617.44;5039092;28;20525;-70
2020/12/10 00:47:54;;;;;;;2.40;0.87;;;;;;;2.91;94.23;100619.25;5039347;28;20916;-70
2020/12/10 00:50:20;;;;;;;2.33;1.03;;;;;;;2.89;94.82;100622.19;5039320;28;20455;-70
2020/12/10 00:52:46;;;;;;;14.83;3.20;;;;;;;2.94;94.78;100614.22;5039248;28;21002;-70
2020/12/10 00:55:12;;;;;;;1.33;1.13;;;;;;;2.91;94.21;100620.03;5039533;28;20817;-70
2020/12/10 00:57:39;;;;;;;11.00;1.90;;;;;;;2.92;93.65;100620.84;5039263;28;20857;-70
2020/12/10 01:00:07;;;;;;;0.87;0.87;;;;;;;2.77;93.97;100616.94;5039462;28;20482;-70
2020/12/10 01:02:34;;;;;;;0.77;0.77;;;;;;;2.77;94.40;100614.25;5039533;28;20433;-70
2020/12/10 01:05:00;;;;;;;0.50;0.50;;;;;;;2.81;93.55;100611.91;5039417;28;20498;-70
2020/12/10 01:07:26;;;;;;;2.23;2.07;;;;;;;2.77;93.77;100613.47;5039440;28;20434;-70
2020/12/10 01:09:52;;;;;;;4.70;2.80;;;;;;;2.74;93.98;100619.28;5039493;28;20520;-69
2020/12/10 01:12:18;;;;;;;5.50;2.07;;;;;;;2.81;93.82;100625.28;5039085;28;21001;-70
2020/12/10 01:14:44;;;;;;;3.03;0.73;;;;;;;2.75;92.99;100623.59;5039064;28;20548;-69
2020/12/10 01:17:11;;;;;;;2.37;1.70;;;;;;;2.63;94.08;100617.56;5039389;28;20482;-69
2020/12/10 01:19:38;;;;;;;4.63;2.60;;;;;;;2.55;94.66;100616.13;5039187;28;20514;-70
2020/12/10 01:22:04;;;;;;;1.07;0.97;;;;;;;2.57;95.07;100613.19;5039354;28;20524;-69
2020/12/10 01:24:30;;;;;;;0.60;0.60;;;;;;;2.61;94.89;100601.78;5038898;28;20454;-70
2020/12/10 01:26:56;;;;;;;1.00;0.97;;;;;;;2.70;94.80;100610.97;5039188;28;20477;-70
2020/12/10 01:29:23;;;;;;;1.13;1.03;;;;;;;2.81;94.83;100603.06;5039369;28;20822;-70
2020/12/10 01:31:49;;;;;;;0.40;0.30;;;;;;;2.78;94.54;100594.47;5039222;28;20542;-70
2020/12/10 01:34:16;;;;;;;0.53;0.53;;;;;;;2.65;94.24;100591.38;5039138;28;20455;-69
2020/12/10 01:36:42;;;;;;;1.00;0.93;;;;;;;2.62;94.44;100590.00;5038878;28;20434;-69
2020/12/10 01:39:08;;;;;;;2.20;1.33;;;;;;;2.55;94.94;100584.03;5037030;28;21004;-69
2020/12/10 01:41:35;;;;;;;5.30;2.17;;;;;;;2.48;95.56;100583.41;5035996;28;20500;-69
2020/12/10 01:44:04;;;;;;;0.70;0.70;;;;;;;2.55;95.18;100581.34;5035652;28;20486;-68
2020/12/10 01:46:30;;;;;;;2.67;1.90;;;;;;;2.46;95.44;100575.63;5035969;28;20453;-69
2020/12/10 01:48:56;;;;;;;1.50;1.37;;;;;;;2.48;95.73;100564.72;5035948;28;20536;-69
2020/12/10 01:51:23;;;;;;;1.73;1.63;;;;;;;2.55;95.34;100562.63;5035570;28;21006;-69
2020/12/10 01:53:50;;;;;;;1.13;0.63;;;;;;;2.51;94.88;100558.84;5035751;28;20498;-69
2020/12/10 01:56:16;;;;;;;1.80;1.43;;;;;;;2.43;95.88;100553.94;5035790;28;20504;-69
2020/12/10 01:58:43;;;;;;;4.27;2.87;;;;;;;2.39;95.07;100552.81;5035763;28;20469;-70
2020/12/10 02:01:09;;;;;;;0.57;0.57;;;;;;;2.32;95.19;100546.84;5035333;28;20487;-69
2020/12/10 02:03:35;;;;;;;1.60;1.50;;;;;;;2.28;95.63;100536.63;5035569;28;20451;-70
2020/12/10 02:06:02;;;;;;;0.50;0.47;;;;;;;2.32;95.90;100533.47;5035619;28;20869;-70
2020/12/10 02:08:29;;;;;;;4.93;3.90;;;;;;;2.31;96.16;100540.69;5035817;28;20534;-69
2020/12/10 02:10:55;;;;;;;2.10;2.00;;;;;;;2.22;95.47;100537.63;5035562;28;20859;-70
2020/12/10 02:13:21;;;;;;;0.40;0.40;;;;;;;2.29;95.39;100516.06;5035376;28;20443;-70
2020/12/10 02:15:48;;;;;;;13.63;2.63;;;;;;;2.17;94.84;100510.84;5035461;28;20865;-70
2020/12/10 02:18:14;;;;;;;1.70;1.10;;;;;;;2.19;95.02;100526.63;5035404;28;20430;-70
2020/12/10 02:20:41;;;;;;;1.33;0.63;;;;;;;2.22;95.25;100534.97;5034947;28;20916;-70
2020/12/10 02:23:10;;;;;;;1.13;1.13;;;;;;;2.20;95.11;100512.22;5034945;28;20466;-70
2020/12/10 02:25:38;;;;;;;2.60;0.60;;;;;;;2.13;95.12;100517.75;5034967;28;20474;-70
2020/12/10 02:28:06;;;;;;;10.50;2.10;;;;;;;2.10;94.54;100523.56;5034856;28;20478;-69
2020/12/10 02:30:33;;;;;;;1.97;0.87;;;;;;;2.07;94.63;100517.91;5035140;28;20437;-68
2020/12/10 02:33:01;;;;;;;0.50;0.50;;;;;;;2.07;95.31;100526.72;5035143;28;20520;-69
2020/12/10 02:35:28;;;;;;;2.13;2.00;;;;;;;2.11;94.65;100514.50;5034967;28;20492;-68
2020/12/10 02:37:56;;;;;;;2.30;0.87;;;;;;;2.13;94.75;100515.06;5035023;28;20434;-69
2020/12/10 02:40:24;;;;;;;1.23;1.23;;;;;;;2.15;94.80;100514.81;5034605;28;21015;-69
2020/12/10 02:42:50;;;;;;;1.50;1.40;;;;;;;2.10;95.50;100501.41;5034937;28;20486;-68
2020/12/10 02:45:16;;;;;;;3.60;0.90;;;;;;;2.10;95.90;100501.41;5034660;28;20471;-69
2020/12/10 02:47:42;;;;;;;7.03;1.73;;;;;;;2.04;96.17;100508.53;5034816;28;20486;-69
2020/12/10 02:50:08;;;;;;;1.57;1.47;;;;;;;2.10;96.37;100480.03;5034333;28;20499;-69
2020/12/10 02:52:35;;;;;;;4.87;2.37;;;;;;;2.12;96.53;100504.63;5033422;28;20495;-69
2020/12/10 02:55:01;;;;;;;4.93;1.90;;;;;;;2.14;96.16;100499.84;5034637;28;20917;-69
2020/12/10 02:57:28;;;;;;;1.00;0.90;;;;;;;2.20;96.27;100507.66;5034621;28;20442;-69
2020/12/10 02:59:54;;;;;;;2.67;2.13;;;;;;;2.14;96.35;100518.56;5034523;28;20490;-69
2020/12/10 03:02:21;;;;;;;8.03;2.10;;;;;;;2.18;96.37;100528.50;5034261;28;20496;-70
2020/12/10 03:04:47;;;;;;;1.50;0.90;;;;;;;2.19;96.34;100521.28;5034421;28;20455;-72
2020/12/10 03:07:14;;;;;;;32.20;2.40;;;;;;;2.18;96.57;100523.16;5034118;28;20457;-69
2020/12/10 03:09:40;;;;;;;2.93;1.57;;;;;;;2.17;96.34;100526.88;5034368;28;20464;-72
2020/12/10 03:12:06;;;;;;;1.57;1.47;;;;;;;2.16;96.47;100522.56;5034406;28;20470;-73
2020/12/10 03:14:33;;;;;;;1.03;1.00;;;;;;;2.12;96.23;100521.44;5034245;28;20488;-73
2020/12/10 03:16:59;;;;;;;1.47;1.40;;;;;;;2.19;96.23;100514.06;5034281;28;20437;-74
2020/12/10 03:19:25;;;;;;;0.50;0.43;;;;;;;2.09;95.75;100508.59;5033821;28;20532;-74
2020/12/10 03:21:52;;;;;;;3.80;1.43;;;;;;;2.07;95.53;100502.69;5034157;28;20482;-74
2020/12/10 03:24:18;;;;;;;1.13;0.87;;;;;;;2.11;95.74;100503.81;5034057;28;20459;-74
2020/12/10 03:26:44;;;;;;;1.53;1.40;;;;;;;2.14;95.62;100499.84;5034092;28;20446;-74
2020/12/10 03:29:10;;;;;;;3.13;2.93;;;;;;;2.14;95.77;100500.66;5033726;28;20513;-73
2020/12/10 03:31:37;;;;;;;5.20;2.33;;;;;;;2.14;95.07;100503.31;5033977;28;20790;-73
2020/12/10 03:34:04;;;;;;;8.60;4.47;;;;;;;2.15;95.92;100496.13;5033925;28;20886;-74
2020/12/10 03:36:30;;;;;;;2.13;1.93;;;;;;;2.23;95.63;100490.34;5033917;28;20815;-74
2020/12/10 03:38:57;;;;;;;0.80;0.63;;;;;;;2.23;95.00;100483.13;5033591;28;20952;-74
2020/12/10 03:41:23;;;;;;;3.63;0.90;;;;;;;2.28;95.55;100472.50;5033759;28;20498;-74
2020/12/10 03:43:49;;;;;;;1.43;1.43;;;;;;;2.25;94.94;100466.84;5033549;28;20474;-73
2020/12/10 03:46:15;;;;;;;5.97;1.57;;;;;;;2.22;94.91;100473.50;5033848;28;20491;-74
2020/12/10 03:48:42;;;;;;;4.13;2.77;;;;;;;2.19;95.34;100474.00;5033727;28;20478;-74
2020/12/10 03:51:08;;;;;;;2.50;2.10;;;;;;;2.16;95.98;100469.13;5033656;28;20497;-73
2020/12/10 03:53:34;;;;;;;1.10;1.00;;;;;;;2.19;96.55;100460.63;5033597;28;20525;-73
2020/12/10 03:56:00;;;;;;;1.00;0.97;;;;;;;2.24;95.72;100460.69;5033316;28;20443;-73
2020/12/10 03:58:27;;;;;;;0.93;0.93;;;;;;;2.22;96.03;100465.50;5033250;28;20501;-73
2020/12/10 04:00:53;;;;;;;3.20;3.00;;;;;;;2.24;96.30;100468.72;5033148;28;21062;-74
2020/12/10 04:03:19;;;;;;;0.40;0.30;;;;;;;2.34;96.03;100467.22;5033005;28;20513;-74
2020/12/10 04:05:46;;;;;;;0.50;0.50;;;;;;;2.28;95.70;100471.69;5033450;28;20439;-74
2020/12/10 04:08:12;;;;;;;0.60;0.50;;;;;;;2.17;95.86;100476.13;5033050;28;20486;-74
2020/12/10 04:10:38;;;;;;;23.67;1.50;;;;;;;2.21;95.67;100477.25;5033130;28;20439;-74
2020/12/10 04:13:04;;;;;;;0.40;0.30;;;;;;;2.22;95.16;100478.84;5033063;28;20478;-74
2020/12/10 04:15:30;;;;;;;1.07;1.00;;;;;;;2.20;96.00;100474.81;5033351;28;20515;-74
2020/12/10 04:17:57;;;;;;;2.23;2.03;;;;;;;2.15;95.97;100474.75;5033354;28;20517;-74
2020/12/10 04:20:23;;;;;;;1.87;1.77;;;;;;;2.14;95.86;100473.13;5033255;28;20517;-74
2020/12/10 04:22:50;;;;;;;4.53;4.23;;;;;;;2.03;95.77;100477.50;5033311;28;20505;-74
2020/12/10 04:25:16;;;;;;;2.27;2.07;;;;;;;2.01;95.91;100476.97;5032847;28;20996;-74
2020/12/10 04:27:42;;;;;;;2.40;0.73;;;;;;;2.02;96.45;100473.22;5032945;28;21012;-74
2020/12/10 04:30:08;;;;;;;2.50;1.03;;;;;;;2.10;96.07;100469.34;5033198;28;20945;-74
2020/12/10 04:32:34;;;;;;;1.43;1.33;;;;;;;2.12;95.33;100473.34;5033135;28;20469;-74
2020/12/10 04:35:00;;;;;;;0.50;0.50;;;;;;;2.05;94.94;100469.28;5033113;28;20517;-73
2020/12/10 04:37:27;;;;;;;1.50;1.40;;;;;;;2.03;95.43;100464.16;5033121;28;20644;-74
2020/12/10 04:39:54;;;;;;;1.07;0.97;;;;;;;2.03;95.79;100461.50;5032776;28;20514;-74
2020/12/10 04:42:20;;;;;;;0.50;0.50;;;;;;;2.11;95.54;100470.94;5032816;28;20940;-74
2020/12/10 04:44:47;;;;;;;0.70;0.70;;;;;;;2.09;95.55;100476.53;5065457;22;20490;-77
2020/12/10 04:47:14;;;;;;;3.57;2.23;;;;;;;2.11;95.19;100470.94;5053271;28;20449;-76
2020/12/10 04:49:40;;;;;;;0.70;0.50;;;;;;;2.13;95.19;100458.97;5053141;28;20437;-77
2020/12/10 04:52:08;;;;;;;1.83;1.73;;;;;;;2.16;95.53;100477.16;5060759;22;20508;-64
2020/12/10 04:54:35;;;;;;;1.00;1.00;;;;;;;2.19;95.40;100479.34;5040338;28;20889;-64
2020/12/10 04:57:02;;;;;;;0.40;0.40;;;;;;;2.24;95.60;100482.06;5040096;28;20447;-64
2020/12/10 04:59:28;;;;;;;16.13;2.67;;;;;;;2.24;95.60;100487.41;5041665;28;20491;-64
2020/12/10 05:01:56;;;;;;;1.30;1.20;;;;;;;2.31;95.47;100489.13;5041808;28;21017;-64
2020/12/10 05:04:22;;;;;;;3.23;1.17;;;;;;;2.21;95.90;100485.25;5043778;28;20493;-65
2020/12/10 05:06:50;;;;;;;4.50;2.37;;;;;;;2.24;95.77;100495.44;5043822;28;20501;-65
2020/12/10 05:09:17;;;;;;;4.03;2.67;;;;;;;2.11;95.64;100490.44;5042774;28;20534;-65
2020/12/10 05:11:44;;;;;;;3.07;2.20;;;;;;;2.04;96.37;100489.84;5041992;28;20435;-65
2020/12/10 05:14:11;;;;;;;1.27;0.93;;;;;;;2.02;96.13;100483.91;5042503;28;20454;-65
2020/12/10 05:16:37;;;;;;;0.40;0.40;;;;;;;2.07;96.21;100481.31;5046247;28;20468;-65
2020/12/10 05:19:17;;;;;;;5.57;1.53;;;;;;;2.16;95.79;100487.84;5044844;28;20474;-65
2020/12/10 05:22:00;;;;;;;3.23;0.70;;;;;;;2.17;95.56;100489.47;5045599;28;20526;-65
2020/12/10 05:24:26;;;;;;;0.67;0.67;;;;;;;2.12;95.81;100483.25;5045842;28;20514;-65
2020/12/10 05:27:19;;;;;;;1.73;1.63;;;;;;;2.15;94.77;100485.44;5045689;28;20954;-65
2020/12/10 05:29:47;;;;;;;0.40;0.30;;;;;;;2.11;94.21;100487.78;5046428;28;20426;-65
2020/12/10 05:32:30;;;;;;;0.50;0.40;;;;;;;2.10;93.89;100490.72;5045012;28;20439;-65
2020/12/10 05:34:56;;;;;;;0.80;0.80;;;;;;;2.10;94.00;100490.72;5045766;28;20462;-64
2020/12/10 05:37:30;;;;;;;2.00;1.90;;;;;;;2.03;94.28;100489.00;5046350;28;20446;-65
2020/12/10 05:40:00;;;;;;;0.60;0.60;;;;;;;2.03;94.22;100491.69;5045211;28;20525;-65
2020/12/10 05:42:34;;;;;;;1.60;0.67;;;;;;;2.02;94.11;100483.91;5046348;28;20443;-65
2020/12/10 05:45:09;;;;;;;2.63;1.07;;;;;;;2.07;94.36;100489.31;5044345;28;20462;-64
2020/12/10 05:47:39;;;;;;;3.53;3.23;;;;;;;2.02;94.10;100479.38;5043486;28;20490;-65
2020/12/10 05:50:06;;;;;;;1.17;1.07;;;;;;;2.02;94.27;100475.91;5043350;28;20439;-65
2020/12/10 05:52:37;;;;;;;0.80;0.80;;;;;;;2.08;93.93;100482.94;5043253;28;20458;-65
2020/12/10 05:55:04;;;;;;;2.93;2.10;;;;;;;2.12;93.79;100481.38;5043575;28;21052;-64
2020/12/10 05:57:30;;;;;;;1.10;1.10;;;;;;;2.01;94.63;100482.31;5043040;28;20464;-66
2020/12/10 05:59:57;;;;;;;3.50;0.67;;;;;;;2.03;94.98;100477.50;5043609;28;20847;-64
2020/12/10 06:02:24;;;;;;;3.83;3.53;;;;;;;2.02;95.03;100481.25;5042528;28;20967;-66
2020/12/10 06:04:53;;;;;;;0.87;0.87;;;;;;;2.00;95.40;100483.38;5042202;28;20467;-63
2020/12/10 06:07:19;;;;;;;0.83;0.83;;;;;;;1.97;94.78;100481.19;5040071;28;20515;-64
2020/12/10 06:09:46;;;;;;;2.30;2.10;;;;;;;1.95;95.29;100483.31;5042016;28;20440;-62
2020/12/10 06:12:12;;;;;;;2.13;1.30;;;;;;;1.96;94.96;100487.59;5042604;28;20442;-62
2020/12/10 06:14:52;;;;;;;3.60;1.13;;;;;;;1.95;95.34;100486.78;5041213;28;20462;-61
2020/12/10 06:17:18;;;;;;;1.07;1.07;;;;;;;1.91;95.06;100492.88;5041960;28;20423;-62
2020/12/10 06:19:45;;;;;;;0.67;0.50;;;;;;;1.89;95.26;100494.97;5041116;28;20490;-62
2020/12/10 06:22:26;;;;;;;0.70;0.70;;;;;;;1.93;95.48;100496.88;5041583;28;20885;-62
2020/12/10 06:24:52;;;;;;;0.40;0.30;;;;;;;2.05;95.23;100501.34;5041475;28;20451;-61
2020/12/10 06:27:29;;;;;;;2.10;1.90;;;;;;;2.13;94.81;100504.38;5041195;28;20439;-62
2020/12/10 06:30:14;;;;;;;2.93;1.33;;;;;;;2.12;94.60;100508.09;5037306;28;20489;-64
2020/12/10 06:32:43;;;;;;;6.97;2.50;;;;;;;2.08;94.25;100508.81;5035685;28;20419;-64
2020/12/10 06:35:26;;;;;;;3.90;1.53;;;;;;;2.05;94.65;100510.16;5038702;28;20829;-65
2020/12/10 06:37:52;;;;;;;0.50;0.50;;;;;;;2.06;94.14;100497.59;5040980;28;20424;-64
2020/12/10 06:40:29;;;;;;;2.20;1.77;;;;;;;1.98;93.59;100504.16;5041145;28;20553;-64
2020/12/10 06:42:56;;;;;;;0.60;0.60;;;;;;;1.91;94.72;100503.53;5040099;28;20453;-64
2020/12/10 06:45:27;;;;;;;1.83;0.63;;;;;;;1.93;94.44;100498.75;5040458;28;20496;-64
2020/12/10 06:47:54;;;;;;;0.40;0.40;;;;;;;1.90;94.16;100502.72;5039251;28;20963;-63
2020/12/10 06:50:25;;;;;;;0.90;0.50;;;;;;;1.93;93.67;100502.22;5038808;28;20447;-63
2020/12/10 06:53:12;;;;;;;0.40;0.30;;;;;;;1.90;94.10;100509.91;5039190;28;20465;-64
2020/12/10 06:56:01;;;;;;;2.30;1.23;;;;;;;1.85;94.01;100501.84;5038383;28;20486;-63
2020/12/10 06:58:52;;;;;;;9.03;2.40;;;;;;;1.92;94.53;100510.50;5038956;28;20486;-64
2020/12/10 07:01:38;;;;;;;3.00;1.10;;;;;;;1.91;93.95;100508.88;5040218;28;20478;-64
2020/12/10 07:04:16;;;;;;;1.17;1.07;;;;;;;1.87;94.15;100507.75;5040834;28;20488;-63
2020/12/10 07:06:44;;;;;;;3.80;3.50;;;;;;;1.89;94.27;100505.63;5041011;28;20439;-63
2020/12/10 07:09:13;;;;;;;2.00;1.90;;;;;;;1.87;93.72;100508.56;5040466;28;20492;-64
2020/12/10 07:11:41;;;;;;;0.40;0.40;;;;;;;1.84;94.71;100506.38;5040597;28;20439;-64
2020/12/10 07:14:22;;;;;;;0.50;0.50;;;;;;;1.76;94.71;100504.13;5040253;28;20478;-63
2020/12/10 07:16:49;;;;;;;1.57;1.17;;;;;;;1.87;95.07;100502.41;5040262;28;20427;-63
2020/12/10 07:19:15;;;;;;;3.80;1.17;;;;;;;1.88;94.56;100493.34;5039691;28;20496;-64
2020/12/10 07:21:41;;;;;;;1.57;1.47;;;;;;;1.94;94.64;100495.81;5039247;28;20534;-64
2020/12/10 07:24:08;;;;;;;1.27;1.07;;;;;;;1.92;95.33;100489.94;5039421;28;20459;-63
2020/12/10 07:26:35;;;;;;;2.83;2.40;;;;;;;1.98;95.48;100496.94;5039082;28;20543;-63
2020/12/10 07:29:01;;;;;;;1.70;1.60;;;;;;;2.04;95.01;100492.50;5038330;28;20449;-64
2020/12/10 07:31:27;;;;;;;8.80;1.47;;;;;;;2.06;95.24;100502.94;5039523;28;20849;-64
2020/12/10 07:33:55;;;;;;;2.30;2.20;;;;;;;2.12;95.18;100494.72;5038528;28;20467;-64
2020/12/10 07:36:21;;;;;;;3.50;3.30;;;;;;;2.08;94.59;100504.31;5039677;28;20451;-64
2020/12/10 07:38:47;;;;;;;1.23;1.13;;;;;;;2.04;94.78;100497.84;5039034;28;20509;-63
2020/12/10 07:41:14;;;;;;;1.70;1.60;;;;;;;2.04;95.04;100500.53;5039071;28;20913;-64
2020/12/10 07:43:45;;;;;;;9.80;6.37;;;;;;;2.02;95.27;100492.75;5040804;28;20817;-64
2020/12/10 07:46:12;;;;;;;13.77;2.20;;;;;;;2.10;95.28;100488.84;5045843;28;20475;-65
2020/12/10 07:48:38;;;;;;;3.13;2.83;;;;;;;2.11;95.23;100495.78;5045432;28;20439;-64
2020/12/10 07:51:05;;;;;;;0.50;0.50;;;;;;;2.14;94.85;100497.19;5044748;28;20468;-63
2020/12/10 07:53:31;;;;;;;6.73;2.00;;;;;;;2.12;94.60;100505.41;5045426;28;20464;-64
2020/12/10 07:56:00;;;;;;;0.50;0.50;;;;;;;2.03;94.40;100497.03;5044292;28;20465;-63
2020/12/10 07:58:35;;;;;;;2.93;2.00;;;;;;;2.09;94.20;100500.59;5031290;28;20487;-64
2020/12/10 08:01:04;;;;;;;1.37;0.50;;;;;;;2.08;93.77;100496.31;5022931;28;20503;-63
2020/12/10 08:03:50;;;;;;;0.80;0.70;;;;;;;2.09;93.43;100495.25;5024798;28;20472;-64
2020/12/10 08:06:18;;;;;;;0.40;0.30;;;;;;;2.08;93.62;100490.97;5024759;28;20428;-64
2020/12/10 08:08:47;;;;;;;8.23;1.50;;;;;;;1.97;93.69;100492.69;5025590;28;20438;-64
2020/12/10 08:11:16;;;;;;;0.83;0.83;;;;;;;2.02;93.30;100497.28;5025186;28;20942;-64
2020/12/10 08:14:00;;;;;;;1.53;1.23;;;;;;;2.09;93.36;100484.56;5024466;28;20451;-64
2020/12/10 08:16:45;;;;;;;9.73;0.80;;;;;;;2.00;92.95;100470.00;5023035;28;20526;-64
2020/12/10 08:19:13;;;;;;;0.50;0.40;;;;;;;2.00;93.05;100480.69;5023607;28;20420;-64
2020/12/10 08:21:39;;;;;;;1.80;1.70;;;;;;;2.03;92.52;100475.66;5024073;28;20514;-64
2020/12/10 08:24:05;;;;;;;1.23;0.70;;;;;;;2.00;93.46;100467.34;5023957;28;20452;-64
2020/12/10 08:26:31;;;;;;;0.40;0.40;;;;;;;1.96;92.69;100474.22;5024035;28;20828;-64
2020/12/10 08:28:58;;;;;;;1.13;1.13;;;;;;;1.96;92.47;100464.34;5024347;28;20451;-64
2020/12/10 08:31:26;;;;;;;2.63;0.73;;;;;;;1.92;93.72;100463.22;5023320;28;20432;-64
2020/12/10 08:33:53;;;;;;;0.40;0.40;;;;;;;1.99;94.51;100479.06;5024594;28;20444;-64
2020/12/10 08:36:31;;;;;;;1.67;0.67;;;;;;;2.02;94.31;100468.69;5023755;28;20513;-65
2020/12/10 08:38:59;;;;;;;2.67;0.67;;;;;;;2.03;94.81;100466.84;5023603;28;20440;-64
2020/12/10 08:41:31;;;;;;;9.73;2.30;;;;;;;2.00;95.23;100475.34;5022206;28;20587;-65
2020/12/10 08:44:00;;;;;;;5.30;3.10;;;;;;;1.98;95.42;100472.09;5023064;28;20428;-64
2020/12/10 08:46:28;;;;;;;0.97;0.50;;;;;;;2.03;95.75;100477.50;5023757;28;20443;-65
2020/12/10 08:48:56;;;;;;;2.60;1.50;;;;;;;2.12;95.72;100467.22;5024137;28;20550;-64
2020/12/10 08:51:22;;;;;;;2.97;1.03;;;;;;;2.16;95.35;100469.13;5027280;28;20458;-65
2020/12/10 08:53:49;;;;;;;1.33;0.70;;;;;;;2.20;95.03;100472.94;5024894;28;20475;-64
2020/12/10 08:56:21;;;;;;;0.80;0.80;;;;;;;2.26;94.69;100471.16;5019193;28;20963;-65
2020/12/10 08:58:48;;;;;;;1.07;1.07;;;;;;;2.32;94.01;100462.13;5019504;28;20433;-64
2020/12/10 09:01:15;;;;;;;0.50;0.47;;;;;;;2.27;94.61;100462.88;5020466;28;20485;-65
2020/12/10 09:03:42;;;;;;;1.20;1.10;;;;;;;2.24;94.13;100460.69;5021080;28;20453;-63
2020/12/10 09:06:08;;;;;;;1.13;1.13;;;;;;;2.23;94.03;100456.41;5022364;28;20501;-63
2020/12/10 09:08:34;;;;;;;4.53;1.47;;;;;;;2.20;94.23;100464.13;5021269;28;20470;-64
2020/12/10 09:11:00;;;;;;;0.40;0.30;;;;;;;2.18;94.56;100466.25;5020417;28;20944;-62
2020/12/10 09:13:26;;;;;;;0.57;0.57;;;;;;;2.25;94.00;100464.97;5017491;28;20442;-64
2020/12/10 09:15:53;;;;;;;2.07;1.90;;;;;;;2.31;93.80;100459.72;5019145;28;20486;-63
2020/12/10 09:18:20;;;;;;;1.00;1.00;;;;;;;2.25;94.30;100459.63;5018860;28;20498;-64
2020/12/10 09:20:46;;;;;;;6.33;1.47;;;;;;;2.25;94.45;100464.97;5019084;28;20485;-64
2020/12/10 09:23:13;;;;;;;4.40;1.60;;;;;;;2.21;94.12;100474.56;5018722;28;20444;-64
2020/12/10 09:25:39;;;;;;;3.77;2.30;;;;;;;2.22;94.69;100462.81;5018552;28;20525;-63
2020/12/10 09:28:08;;;;;;;2.60;1.53;;;;;;;2.20;94.74;100467.59;5018273;28;20945;-64
2020/12/10 09:30:34;;;;;;;53.03;2.90;;;;;;;2.16;94.73;100469.13;5018842;28;20480;-64
2020/12/10 09:33:00;;;;;;;2.40;1.93;;;;;;;2.20;94.46;100458.78;5018568;28;20504;-64
2020/12/10 09:35:28;;;;;;;2.90;2.80;;;;;;;2.23;94.19;100459.09;5018991;28;20467;-64
2020/12/10 09:37:54;;;;;;;1.00;0.93;;;;;;;2.21;93.99;100458.53;5020366;28;20478;-64
2020/12/10 09:40:20;;;;;;;0.83;0.83;;;;;;;2.13;94.48;100452.81;5019725;28;21070;-65
2020/12/10 09:42:47;;;;;;;22.53;2.40;;;;;;;2.15;94.45;100451.50;5019276;28;20501;-64
2020/12/10 09:45:14;;;;;;;6.17;1.70;;;;;;;2.20;94.04;100458.78;5018264;28;20479;-64
2020/12/10 09:47:41;;;;;;;0.60;0.60;;;;;;;2.16;93.20;100447.75;5018313;28;20443;-63
2020/12/10 09:50:17;;;;;;;0.50;0.43;;;;;;;2.11;93.60;100453.06;5018347;28;20445;-62
2020/12/10 09:52:51;;;;;;;1.47;1.37;;;;;;;2.14;93.24;100457.09;5017939;28;20456;-65
2020/12/10 09:55:34;;;;;;;0.60;0.60;;;;;;;2.17;92.44;100448.56;5017464;28;20473;-64
2020/12/10 09:58:00;;;;;;;1.60;1.50;;;;;;;2.22;91.80;100445.97;5016565;28;20475;-64
2020/12/10 10:00:26;;;;;;;2.40;2.30;;;;;;;2.18;91.97;100445.66;5023537;28;20907;-63
2020/12/10 10:02:52;;;;;;;1.20;1.13;;;;;;;2.07;91.99;100443.91;5041176;28;20441;-63
2020/12/10 10:05:18;;;;;;;0.93;0.93;;;;;;;2.11;92.33;100445.03;5041607;28;20463;-64
2020/12/10 10:07:45;;;;;;;1.27;1.17;;;;;;;2.13;92.31;100445.59;5042066;28;20451;-64
2020/12/10 10:10:12;;;;;;;0.50;0.50;;;;;;;2.17;92.00;100451.25;5041400;28;20439;-64
2020/12/10 10:12:38;;;;;;;2.60;2.40;;;;;;;2.13;92.25;100442.94;5040708;28;20448;-64
2020/12/10 10:15:04;;;;;;;0.93;0.83;;;;;;;2.18;92.98;100450.22;5043080;28;20463;-63
2020/12/10 10:17:30;;;;;;;3.60;1.40;;;;;;;2.20;93.63;100448.09;5042203;28;20443;-64
2020/12/10 10:19:56;;;;;;;2.37;2.23;;;;;;;2.22;93.52;100451.34;5042570;28;20477;-64
2020/12/10 10:22:25;;;;;;;8.23;0.80;;;;;;;2.24;93.66;100458.03;5042948;28;20437;-64
2020/12/10 10:24:52;;;;;;;0.40;0.30;;;;;;;2.30;93.70;100447.38;5043785;28;20816;-63
2020/12/10 10:27:18;;;;;;;1.23;0.87;;;;;;;2.20;93.21;100448.09;5044369;28;20456;-64
2020/12/10 10:29:44;;;;;;;1.47;0.97;;;;;;;2.16;93.45;100446.97;5023744;28;20464;-64
2020/12/10 10:32:10;;;;;;;2.60;1.67;;;;;;;2.22;93.61;100446.78;5024533;28;20900;-60
2020/12/10 10:34:37;;;;;;;1.53;1.43;;;;;;;2.21;93.01;100439.84;5024029;28;20469;-63
2020/12/10 10:37:03;;;;;;;1.53;1.43;;;;;;;2.23;92.86;100443.06;5024745;28;20539;-65
2020/12/10 10:39:29;;;;;;;1.93;0.90;;;;;;;2.19;92.23;100441.94;5017971;28;20444;-62
2020/12/10 10:41:56;;;;;;;2.20;2.10;;;;;;;2.22;92.11;100443.31;5018823;28;21008;-64
2020/12/10 10:44:23;;;;;;;1.30;1.23;;;;;;;2.24;91.83;100427.81;5020546;28;20453;-65
2020/12/10 10:46:49;;;;;;;2.30;1.17;;;;;;;2.23;92.41;100434.22;5059674;22;20577;-69
2020/12/10 10:49:17;;;;;;;0.93;0.93;;;;;;;2.14;93.52;100428.53;5053705;28;20970;-69
2020/12/10 10:51:43;;;;;;;0.40;0.30;;;;;;;2.18;93.93;100424.28;5054048;28;20740;-69
2020/12/10 10:54:12;;;;;;;1.03;0.63;;;;;;;2.23;93.33;100419.00;5053748;28;20441;-69
2020/12/10 10:56:39;;;;;;;2.50;1.67;;;;;;;2.22;92.58;100417.41;5052927;28;20474;-69
2020/12/10 10:59:06;;;;;;;3.60;2.33;;;;;;;2.14;92.57;100411.69;5053980;28;20812;-70
2020/12/10 11:01:32;;;;;;;0.93;0.93;;;;;;;2.17;92.33;100409.34;5053779;28;20478;-69
2020/12/10 11:03:58;;;;;;;7.53;2.00;;;;;;;2.16;92.44;100414.91;5053470;28;20478;-69
2020/12/10 11:06:24;;;;;;;4.10;1.33;;;;;;;2.16;92.29;100405.03;5053709;28;20876;-70
2020/12/10 11:08:50;;;;;;;2.93;1.90;;;;;;;2.20;92.07;100406.13;5053811;28;20445;-69
2020/12/10 11:11:20;;;;;;;1.23;1.13;;;;;;;2.23;91.27;100400.31;5053531;28;20556;-69
2020/12/10 11:13:47;;;;;;;0.93;0.90;;;;;;;2.19;91.44;100393.03;5053115;28;20442;-70
2020/12/10 11:16:14;;;;;;;0.87;0.87;;;;;;;2.17;91.53;100397.81;5053306;28;20481;-69
2020/12/10 11:18:40;;;;;;;0.80;0.77;;;;;;;2.18;91.43;100391.44;5052776;28;20609;-69
2020/12/10 11:21:07;;;;;;;1.13;0.80;;;;;;;2.21;91.80;100396.25;5053060;28;21044;-69
2020/12/10 11:23:33;;;;;;;1.40;1.33;;;;;;;2.25;91.65;100397.38;5053265;28;20503;-69
2020/12/10 11:25:59;;;;;;;0.40;0.30;;;;;;;2.24;91.10;100396.56;5053250;28;20515;-69
2020/12/10 11:28:27;;;;;;;0.40;0.30;;;;;;;2.26;90.92;100391.78;5053614;28;20473;-69
2020/12/10 11:30:53;;;;;;;1.83;1.47;;;;;;;2.21;91.18;100389.06;5053496;28;20439;-69
2020/12/10 11:33:20;;;;;;;1.03;0.77;;;;;;;2.24;90.76;100385.06;5053288;28;20858;-69
2020/12/10 11:35:46;;;;;;;0.50;0.40;;;;;;;2.22;91.56;100384.53;5053533;28;20548;-69
2020/12/10 11:38:12;;;;;;;7.53;1.33;;;;;;;2.18;91.28;100381.53;5053621;28;20525;-69